ICAO code: LHPR | IATA code: QGY | AFTN: LHPRZPZX | english | deutsch
Időjárás: 2019-04-22 13:00 (UTC) | Hőmérséklet: 18.6 °C | QNH: 1011.7 hPa | Szél: 12.6 m/s | Részletek
Live ATC LHPR
Webkameránk élőképe

Győr-Pér Repülőtér időjárás adatok

Metar:
METAR LHPR 221245Z 11013KT 070V140 CAVOK 21/03 Q101


Taf:
TAF LHPR 221115Z 2212/2221 11008KT CAVOK


Jelenidő:
Nem volt érdemleges időjárási jelenség az elmúlt órában
Időbélyeg: 2019-04-22 13:00:00 UTC
Hőmérséklet:
18.6 °C
 
Harmatpont:
4.8 °C
 
Rel. páratartalom:
40%
 
QNH:
1011.7 hPa
 
Szélsebesség:
12.6 m/s
Max:
16.6 m/s
Szélirány:
80°
 
Csapadék (1 óra):
0.0 mm
 
Látótávolság:
20000 m
 
RVR:
>1500 m RWY30
 
1. felhőréteg mennyisége:
2 octa
 
1. felhőréteg alapja:
2590 m


Az adatokat szolgáltatja
az Országos Meteorológiai Szolgálat
Győr-Pér Repülőtér | H 9099 Pér, Repülőtér | Tel: +36/96/559-200 | Fax: +36/96/559-202

ICAO code: LHPR | IATA code: QGY | AFTN: LHPRZPZX


weboldal tervezés: IRQ